createdAt,value
2018-01-07T00:01:28.762Z,7.33
2018-01-07T00:03:54.763Z,8.87
2018-01-07T00:06:20.762Z,9.30
2018-01-07T00:08:46.746Z,8.30
2018-01-07T00:11:12.804Z,7.97
2018-01-07T00:13:38.795Z,9.30
2018-01-07T00:16:04.777Z,9.33
2018-01-07T00:18:30.819Z,9.30
2018-01-07T00:20:56.821Z,11.70
2018-01-07T00:23:22.846Z,8.60
2018-01-07T00:25:48.838Z,9.57
2018-01-07T00:28:14.818Z,10.50
2018-01-07T00:30:40.835Z,9.63
2018-01-07T00:33:07.562Z,9.80
2018-01-07T00:35:33.570Z,10.17
2018-01-07T00:37:59.574Z,9.40
2018-01-07T00:40:26.309Z,9.30
2018-01-07T00:42:53.028Z,8.90
2018-01-07T00:45:19.020Z,9.07
2018-01-07T00:47:45.004Z,9.93
2018-01-07T00:50:11.006Z,9.57
2018-01-07T00:52:36.949Z,10.53
2018-01-07T00:55:02.959Z,9.17
2018-01-07T00:57:28.891Z,10.70
2018-01-07T00:59:55.633Z,9.67
2018-01-07T01:02:22.321Z,10.20
2018-01-07T01:04:48.305Z,9.77
2018-01-07T01:07:14.256Z,10.30
2018-01-07T01:09:40.939Z,8.90
2018-01-07T01:12:06.897Z,9.73
2018-01-07T01:14:32.845Z,12.67
2018-01-07T01:16:58.843Z,11.10
2018-01-07T01:19:24.784Z,14.30
2018-01-07T01:21:50.712Z,8.23
2018-01-07T01:24:16.672Z,13.43
2018-01-07T01:26:42.614Z,11.23
2018-01-07T01:29:08.591Z,11.83
2018-01-07T01:31:35.288Z,11.20
2018-01-07T01:34:01.298Z,10.50
2018-01-07T01:36:27.264Z,10.20
2018-01-07T01:38:53.221Z,10.80
2018-01-07T01:41:19.224Z,10.60
2018-01-07T01:43:45.195Z,9.87
2018-01-07T01:46:11.152Z,11.63
2018-01-07T01:48:37.087Z,11.00
2018-01-07T01:51:03.799Z,11.10
2018-01-07T01:53:29.736Z,11.80
2018-01-07T01:55:55.704Z,11.00
2018-01-07T01:58:21.642Z,11.10
2018-01-07T02:00:48.348Z,10.70
2018-01-07T02:03:14.311Z,11.47
2018-01-07T02:05:40.252Z,11.50
2018-01-07T02:08:06.229Z,11.07
2018-01-07T02:10:32.202Z,10.27
2018-01-07T02:12:58.176Z,10.67
2018-01-07T02:15:24.889Z,11.83
2018-01-07T02:17:50.877Z,11.43
2018-01-07T02:20:17.571Z,11.17
2018-01-07T02:22:43.552Z,10.60
2018-01-07T02:25:10.233Z,13.00
2018-01-07T02:27:36.208Z,11.90
2018-01-07T02:30:02.213Z,11.90
2018-01-07T02:32:28.152Z,12.50
2018-01-07T02:34:54.100Z,12.00
2018-01-07T02:37:20.076Z,12.50
2018-01-07T02:39:46.059Z,12.77
2018-01-07T02:42:12.001Z,12.40
2018-01-07T02:44:37.963Z,12.53
2018-01-07T02:47:03.973Z,14.70
2018-01-07T02:49:30.715Z,12.30
2018-01-07T02:51:56.666Z,14.30
2018-01-07T02:54:22.641Z,11.67
2018-01-07T02:56:49.325Z,12.17
2018-01-07T02:59:15.328Z,13.13
2018-01-07T03:01:42.041Z,10.80
2018-01-07T03:04:07.980Z,12.03
2018-01-07T03:06:33.971Z,12.20
2018-01-07T03:08:59.923Z,12.43
2018-01-07T03:11:25.901Z,14.00
2018-01-07T03:13:51.831Z,13.20
2018-01-07T03:16:17.921Z,14.10
2018-01-07T03:18:43.889Z,13.00
2018-01-07T03:21:09.836Z,13.53
2018-01-07T03:23:35.807Z,13.07
2018-01-07T03:26:02.493Z,15.13
2018-01-07T03:28:28.475Z,13.23
2018-01-07T03:30:54.415Z,12.90
2018-01-07T03:33:21.105Z,13.60
2018-01-07T03:35:47.064Z,14.30
2018-01-07T03:38:13.020Z,12.83
2018-01-07T03:40:39.001Z,12.93
2018-01-07T03:43:05.685Z,15.27
2018-01-07T03:45:31.661Z,14.17
2018-01-07T03:47:57.634Z,12.50
2018-01-07T03:50:23.599Z,12.40
2018-01-07T03:52:49.563Z,11.17
2018-01-07T03:55:15.503Z,12.67
2018-01-07T03:57:41.485Z,12.50
2018-01-07T04:00:07.433Z,11.47
2018-01-07T04:02:33.428Z,12.20
2018-01-07T04:05:00.144Z,12.30
2018-01-07T04:07:26.187Z,12.03
2018-01-07T04:09:52.127Z,14.50
2018-01-07T04:12:18.085Z,12.33
2018-01-07T04:14:44.809Z,13.90
2018-01-07T04:17:10.785Z,15.50
2018-01-07T04:19:37.517Z,12.80
2018-01-07T04:22:03.479Z,11.50
2018-01-07T04:24:29.461Z,11.67
2018-01-07T04:26:55.401Z,10.63
2018-01-07T04:29:21.422Z,10.47
2018-01-07T04:31:48.084Z,10.70
2018-01-07T04:34:14.045Z,8.43
2018-01-07T04:36:40.016Z,8.73
2018-01-07T04:39:05.955Z,8.90
2018-01-07T04:41:31.916Z,8.17
2018-01-07T04:43:57.896Z,8.50
2018-01-07T04:46:24.602Z,7.67
2018-01-07T04:48:50.563Z,8.97
2018-01-07T04:51:16.509Z,9.70
2018-01-07T04:53:42.492Z,9.13
2018-01-07T04:56:08.441Z,11.50
2018-01-07T04:58:34.424Z,10.00
2018-01-07T05:01:00.394Z,11.23
2018-01-07T05:03:26.335Z,10.63
2018-01-07T05:05:52.326Z,10.53
2018-01-07T05:08:18.260Z,10.70
2018-01-07T05:10:44.253Z,10.60
2018-01-07T05:13:10.188Z,11.30
2018-01-07T05:15:36.129Z,10.60
2018-01-07T05:18:02.105Z,10.90
2018-01-07T05:20:28.067Z,11.10
2018-01-07T05:22:54.013Z,10.50
2018-01-07T05:25:19.991Z,11.17
2018-01-07T05:27:45.944Z,10.83
2018-01-07T05:30:11.937Z,9.47
2018-01-07T05:32:37.951Z,9.90
2018-01-07T05:35:04.615Z,9.67
2018-01-07T05:37:30.603Z,9.63
2018-01-07T05:39:56.578Z,9.53
2018-01-07T05:42:23.236Z,9.60
2018-01-07T05:44:49.203Z,9.63
2018-01-07T05:47:15.171Z,9.90
2018-01-07T05:49:41.925Z,10.13
2018-01-07T05:52:08.638Z,10.30
2018-01-07T05:54:34.588Z,10.10
2018-01-07T05:57:02.085Z,8.40
2018-01-07T05:59:28.805Z,9.43
2018-01-07T06:01:54.780Z,9.90
2018-01-07T06:04:21.465Z,8.10
2018-01-07T06:06:47.431Z,8.70
2018-01-07T06:09:13.413Z,9.07
2018-01-07T06:11:39.347Z,10.10
2018-01-07T06:14:06.090Z,8.50
2018-01-07T06:16:32.824Z,7.73
2018-01-07T06:18:58.769Z,7.80
2018-01-07T06:21:25.543Z,8.67
2018-01-07T06:23:51.491Z,8.67
2018-01-07T06:26:17.455Z,7.83
2018-01-07T06:28:43.429Z,5.63
2018-01-07T06:31:10.118Z,5.90
2018-01-07T06:33:36.101Z,5.53
2018-01-07T06:36:02.055Z,5.37
2018-01-07T06:38:28.783Z,4.30
2018-01-07T06:40:54.729Z,4.83
2018-01-07T06:43:20.676Z,4.60
2018-01-07T06:45:47.395Z,3.80
2018-01-07T06:48:13.335Z,3.87
2018-01-07T06:50:39.312Z,3.97
2018-01-07T06:53:05.251Z,3.33
2018-01-07T06:55:31.225Z,3.40
2018-01-07T06:57:57.173Z,2.70
2018-01-07T07:00:23.168Z,3.30
2018-01-07T07:02:49.212Z,3.17
2018-01-07T07:05:15.216Z,3.70
2018-01-07T07:07:41.973Z,2.93
2018-01-07T07:10:08.661Z,2.40
2018-01-07T07:12:34.637Z,2.70
2018-01-07T07:15:00.612Z,3.20
2018-01-07T07:17:26.613Z,3.20
2018-01-07T07:19:52.543Z,3.00
2018-01-07T07:22:18.492Z,3.00
2018-01-07T07:24:45.242Z,3.80
2018-01-07T07:27:11.175Z,4.20
2018-01-07T07:29:37.149Z,3.20
2018-01-07T07:32:03.087Z,3.33
2018-01-07T07:34:29.051Z,3.67
2018-01-07T07:36:55.030Z,3.70
2018-01-07T07:39:21.727Z,3.43
2018-01-07T07:41:47.705Z,3.50
2018-01-07T07:44:13.705Z,3.10
2018-01-07T07:46:39.648Z,3.40
2018-01-07T07:49:05.817Z,3.20
2018-01-07T07:51:31.738Z,3.60
2018-01-07T07:53:57.684Z,3.13
2018-01-07T07:56:23.693Z,2.17
2018-01-07T07:58:49.670Z,3.10
2018-01-07T08:01:16.371Z,2.93
2018-01-07T08:03:42.308Z,3.13
2018-01-07T08:06:08.293Z,3.20
2018-01-07T08:08:35.005Z,3.37
2018-01-07T08:11:00.975Z,3.13
2018-01-07T08:13:27.728Z,3.27
2018-01-07T08:15:53.708Z,3.50
2018-01-07T08:18:19.694Z,3.20
2018-01-07T08:20:45.638Z,4.07
2018-01-07T08:23:12.372Z,3.53
2018-01-07T08:25:38.332Z,3.50
2018-01-07T08:28:05.033Z,3.67
2018-01-07T08:30:31.012Z,4.07
2018-01-07T08:32:56.957Z,3.80
2018-01-07T08:35:23.645Z,4.43
2018-01-07T08:37:49.650Z,3.80
2018-01-07T08:40:16.331Z,4.50
2018-01-07T08:42:42.263Z,5.00
2018-01-07T08:45:08.231Z,4.63
2018-01-07T08:47:34.279Z,5.10
2018-01-07T08:50:00.224Z,5.07
2018-01-07T08:52:26.189Z,4.87
2018-01-07T08:54:52.160Z,5.00
2018-01-07T08:57:18.107Z,4.30
2018-01-07T08:59:44.077Z,4.03
2018-01-07T09:02:11.097Z,3.67
2018-01-07T09:04:37.079Z,4.23
2018-01-07T09:07:03.774Z,5.10
2018-01-07T09:09:29.810Z,4.30
2018-01-07T09:11:55.793Z,4.60
2018-01-07T09:14:22.496Z,4.70
2018-01-07T09:16:48.469Z,4.57
2018-01-07T09:19:14.663Z,4.57
2018-01-07T09:21:40.618Z,5.30
2018-01-07T09:24:06.552Z,5.43
2018-01-07T09:26:32.540Z,4.50
2018-01-07T09:28:59.253Z,4.77
2018-01-07T09:31:25.230Z,4.67
2018-01-07T09:33:51.908Z,4.80
2018-01-07T09:36:17.877Z,4.10
2018-01-07T09:38:43.881Z,4.03
2018-01-07T09:41:10.571Z,4.67
2018-01-07T09:43:36.539Z,4.40
2018-01-07T09:46:03.256Z,4.80
2018-01-07T09:48:29.259Z,4.23
2018-01-07T09:50:55.195Z,4.10
2018-01-07T09:53:21.150Z,4.13
2018-01-07T09:55:47.130Z,4.70
2018-01-07T09:58:13.803Z,4.20
2018-01-07T10:00:39.765Z,3.63
2018-01-07T10:03:05.748Z,4.30
2018-01-07T10:05:32.458Z,4.60
2018-01-07T10:07:58.436Z,4.70
2018-01-07T10:10:25.186Z,17.20
2018-01-07T10:12:51.184Z,14.87
2018-01-07T10:15:17.171Z,12.10
2018-01-07T10:17:43.931Z,21.33
2018-01-07T10:20:10.635Z,17.43
2018-01-07T10:22:36.627Z,19.60
2018-01-07T10:25:02.651Z,5.00
2018-01-07T10:27:29.351Z,11.37
2018-01-07T10:29:55.349Z,6.20
2018-01-07T10:32:22.050Z,5.10
2018-01-07T10:34:48.054Z,4.97
2018-01-07T10:37:14.046Z,6.10
2018-01-07T10:39:40.063Z,6.93
2018-01-07T10:42:06.058Z,12.60
2018-01-07T10:44:32.035Z,15.70
2018-01-07T10:46:58.048Z,19.87
2018-01-07T10:49:24.019Z,14.83
2018-01-07T10:51:50.051Z,11.93
2018-01-07T10:54:16.088Z,13.50
2018-01-07T10:56:42.040Z,12.63
2018-01-07T10:59:08.063Z,12.83
2018-01-07T11:01:40.292Z,10.43
2018-01-07T11:04:07.054Z,9.60
2018-01-07T11:06:33.003Z,7.43
2018-01-07T11:08:59.010Z,4.90
2018-01-07T11:11:25.785Z,5.30
2018-01-07T11:13:51.754Z,4.60
2018-01-07T11:16:17.799Z,3.90
2018-01-07T11:18:43.806Z,5.33
2018-01-07T11:21:09.801Z,5.60
2018-01-07T11:23:36.536Z,4.37
2018-01-07T11:26:02.522Z,6.20
2018-01-07T11:28:28.510Z,5.43
2018-01-07T11:30:54.534Z,5.00
2018-01-07T11:33:20.557Z,4.23
2018-01-07T11:35:46.576Z,3.97
2018-01-07T11:38:12.601Z,3.03
2018-01-07T11:40:38.591Z,5.13
2018-01-07T11:43:04.564Z,4.57
2018-01-07T11:45:30.567Z,3.70
2018-01-07T11:47:56.524Z,4.43
2018-01-07T11:50:23.269Z,4.80
2018-01-07T11:52:50.002Z,4.40
2018-01-07T11:55:16.013Z,4.63
2018-01-07T11:57:42.012Z,4.77
2018-01-07T12:00:08.059Z,4.87
2018-01-07T12:02:34.056Z,5.17
2018-01-07T12:05:00.033Z,5.67
2018-01-07T12:07:26.087Z,5.27
2018-01-07T12:09:52.100Z,5.30
2018-01-07T12:12:18.858Z,4.60
2018-01-07T12:14:44.997Z,5.13
2018-01-07T12:17:11.169Z,5.20
2018-01-07T12:19:37.177Z,4.57
2018-01-07T12:22:03.167Z,5.50
2018-01-07T12:24:29.143Z,4.53
2018-01-07T12:26:55.165Z,5.10
2018-01-07T12:29:21.932Z,5.20
2018-01-07T12:31:47.924Z,5.53
2018-01-07T12:34:13.987Z,5.10
2018-01-07T12:36:40.688Z,6.00
2018-01-07T12:39:06.720Z,5.57
2018-01-07T12:41:32.753Z,5.50
2018-01-07T12:43:58.735Z,7.47
2018-01-07T12:46:24.697Z,5.40
2018-01-07T12:48:51.508Z,8.53
2018-01-07T12:51:17.482Z,8.03
2018-01-07T12:53:44.230Z,24.70
2018-01-07T12:56:11.051Z,26.03
2018-01-07T12:58:37.024Z,19.33
2018-01-07T13:01:03.798Z,12.73
2018-01-07T13:03:29.813Z,7.57
2018-01-07T13:05:56.544Z,11.07
2018-01-07T13:08:22.541Z,11.90
2018-01-07T13:10:48.574Z,8.97
2018-01-07T13:13:14.634Z,6.60
2018-01-07T13:15:40.596Z,5.80
2018-01-07T13:18:06.610Z,6.83
2018-01-07T13:20:32.641Z,7.30
2018-01-07T13:22:58.656Z,10.40
2018-01-07T13:25:24.671Z,7.57
2018-01-07T13:27:50.715Z,9.30
2018-01-07T13:30:16.783Z,6.60
2018-01-07T13:32:42.808Z,6.87
2018-01-07T13:35:08.760Z,7.33
2018-01-07T13:37:34.728Z,6.47
2018-01-07T13:40:00.794Z,6.17
2018-01-07T13:42:26.783Z,7.17
2018-01-07T13:44:52.761Z,6.67
2018-01-07T13:47:18.718Z,7.63
2018-01-07T13:49:44.749Z,7.40
2018-01-07T13:52:10.747Z,8.07
2018-01-07T13:54:36.725Z,7.20
2018-01-07T13:57:02.661Z,8.50
2018-01-07T13:59:28.692Z,9.20
2018-01-07T14:01:54.726Z,7.90
2018-01-07T14:04:20.778Z,8.63
2018-01-07T14:06:46.725Z,7.93
2018-01-07T14:09:12.742Z,8.40
2018-01-07T14:11:38.704Z,7.73
2018-01-07T14:14:04.693Z,8.17
2018-01-07T14:16:30.661Z,8.50
2018-01-07T14:18:56.692Z,7.73
2018-01-07T14:21:22.707Z,8.17
2018-01-07T14:23:48.699Z,7.60
2018-01-07T14:26:14.723Z,8.23
2018-01-07T14:28:40.757Z,8.60
2018-01-07T14:31:06.762Z,7.93
2018-01-07T14:33:32.727Z,8.53
2018-01-07T14:35:58.701Z,10.03
2018-01-07T14:38:25.403Z,10.03
2018-01-07T14:40:51.343Z,10.43
2018-01-07T14:43:17.356Z,10.13
2018-01-07T14:45:43.292Z,9.37
2018-01-07T14:48:09.393Z,9.70
2018-01-07T14:50:36.219Z,10.00
2018-01-07T14:53:02.168Z,10.53
2018-01-07T14:55:28.107Z,9.33
2018-01-07T14:57:54.109Z,10.47
2018-01-07T15:00:20.098Z,9.70
2018-01-07T15:02:46.859Z,15.00
2018-01-07T15:05:13.601Z,11.03
2018-01-07T15:07:40.400Z,8.87
2018-01-07T15:10:06.500Z,11.30
2018-01-07T15:12:33.201Z,11.20
2018-01-07T15:15:06.228Z,10.20
2018-01-07T15:17:32.212Z,11.07
2018-01-07T15:19:58.163Z,10.30
2018-01-07T15:22:24.143Z,12.10
2018-01-07T15:24:50.158Z,12.10
2018-01-07T15:27:16.264Z,11.93
2018-01-07T15:29:42.248Z,12.40
2018-01-07T15:32:08.996Z,11.90
2018-01-07T15:34:34.993Z,12.10
2018-01-07T15:37:01.769Z,12.33
2018-01-07T15:39:27.743Z,11.20
2018-01-07T15:41:53.675Z,12.10
2018-01-07T15:44:19.699Z,12.03
2018-01-07T15:46:45.690Z,12.30
2018-01-07T15:49:11.676Z,12.13
2018-01-07T15:51:37.631Z,13.10
2018-01-07T15:54:04.359Z,14.17
2018-01-07T15:56:30.340Z,14.67
2018-01-07T15:58:56.340Z,13.10
2018-01-07T16:01:22.378Z,13.50
2018-01-07T16:03:48.366Z,13.97
2018-01-07T16:06:14.460Z,13.30
2018-01-07T16:08:41.240Z,16.20
2018-01-07T16:11:07.243Z,15.23
2018-01-07T16:13:33.230Z,15.63
2018-01-07T16:15:59.199Z,14.40
2018-01-07T16:18:25.189Z,15.20
2018-01-07T16:20:51.174Z,14.10
2018-01-07T16:23:17.165Z,14.83
2018-01-07T16:25:43.183Z,15.67
2018-01-07T16:28:09.929Z,13.70
2018-01-07T16:30:36.670Z,15.80
2018-01-07T16:33:03.419Z,14.93
2018-01-07T16:35:30.222Z,14.53
2018-01-07T16:37:56.198Z,15.80
2018-01-07T16:40:22.196Z,14.17
2018-01-07T16:42:48.243Z,14.40
2018-01-07T16:45:14.243Z,15.83
2018-01-07T16:47:40.235Z,16.50
2018-01-07T16:50:06.224Z,16.23
2018-01-07T16:52:32.215Z,14.83
2018-01-07T16:54:58.244Z,14.57
2018-01-07T16:57:24.257Z,14.07
2018-01-07T16:59:50.279Z,15.13
2018-01-07T17:02:16.304Z,15.77
2018-01-07T17:04:42.314Z,15.20
2018-01-07T17:07:09.076Z,16.00
2018-01-07T17:09:35.840Z,16.63
2018-01-07T17:12:01.836Z,17.27
2018-01-07T17:14:27.878Z,16.60
2018-01-07T17:16:53.853Z,15.63
2018-01-07T17:19:19.839Z,16.50
2018-01-07T17:21:45.883Z,17.07
2018-01-07T17:24:11.887Z,17.10
2018-01-07T17:26:37.891Z,19.40
2018-01-07T17:29:03.911Z,23.40
2018-01-07T17:31:30.612Z,34.27
2018-01-07T17:33:56.640Z,32.80
2018-01-07T17:36:22.631Z,23.47
2018-01-07T17:38:48.614Z,19.17
2018-01-07T17:41:14.675Z,24.73
2018-01-07T17:43:40.675Z,19.40
2018-01-07T17:46:06.690Z,18.80
2018-01-07T17:48:33.437Z,22.00
2018-01-07T17:50:59.511Z,16.77
2018-01-07T17:53:25.508Z,20.93
2018-01-07T17:55:51.498Z,20.00
2018-01-07T17:58:17.441Z,18.70
2018-01-07T18:00:43.565Z,22.20
2018-01-07T18:03:09.551Z,18.90
2018-01-07T18:05:36.318Z,19.27
2018-01-07T18:08:03.078Z,24.77
2018-01-07T18:10:29.813Z,19.87
2018-01-07T18:12:55.794Z,20.10
2018-01-07T18:15:21.820Z,20.57
2018-01-07T18:17:47.854Z,20.60
2018-01-07T18:20:13.908Z,19.67
2018-01-07T18:22:39.934Z,19.07
2018-01-07T18:25:05.921Z,20.37
2018-01-07T18:27:31.943Z,19.40
2018-01-07T18:29:58.069Z,19.30
2018-01-07T18:32:24.158Z,19.30
2018-01-07T18:34:51.089Z,18.07
2018-01-07T18:37:17.188Z,20.00
2018-01-07T18:39:44.101Z,18.37
2018-01-07T18:42:10.848Z,19.80
2018-01-07T18:44:37.636Z,18.10
2018-01-07T18:47:03.657Z,19.03
2018-01-07T18:49:29.660Z,21.80
2018-01-07T18:51:55.680Z,17.60
2018-01-07T18:54:21.770Z,22.10
2018-01-07T18:56:48.556Z,19.63
2018-01-07T18:59:14.684Z,20.77
2018-01-07T19:01:40.709Z,19.37
2018-01-07T19:04:06.718Z,20.17
2018-01-07T19:06:32.729Z,18.73
2018-01-07T19:08:58.747Z,19.80
2018-01-07T19:11:24.771Z,17.20
2018-01-07T19:13:50.847Z,18.00
2018-01-07T19:16:16.879Z,18.93
2018-01-07T19:18:42.950Z,18.53
2018-01-07T19:21:09.890Z,20.37
2018-01-07T19:23:36.480Z,16.30
2018-01-07T19:26:02.507Z,16.30
2018-01-07T19:28:29.400Z,16.87
2018-01-07T19:30:55.382Z,14.30
2018-01-07T19:33:21.677Z,16.40
2018-01-07T19:35:47.731Z,15.40
2018-01-07T19:38:13.849Z,16.37
2018-01-07T19:40:39.842Z,16.20
2018-01-07T19:43:06.600Z,16.17
2018-01-07T19:45:33.340Z,15.17
2018-01-07T19:47:59.380Z,15.67
2018-01-07T19:50:25.363Z,14.83
2018-01-07T19:52:51.412Z,17.00
2018-01-07T19:55:17.630Z,15.13
2018-01-07T19:57:43.719Z,15.47
2018-01-07T20:00:10.476Z,15.47
2018-01-07T20:02:36.528Z,14.13
2018-01-07T20:05:02.526Z,15.90
2018-01-07T20:07:28.568Z,15.90
2018-01-07T20:09:54.555Z,15.77
2018-01-07T20:12:21.323Z,16.30
2018-01-07T20:14:47.364Z,16.10
2018-01-07T20:17:13.498Z,15.90
2018-01-07T20:19:39.491Z,15.80
2018-01-07T20:22:05.496Z,14.50
2018-01-07T20:24:31.568Z,17.67
2018-01-07T20:26:58.358Z,15.37
2018-01-07T20:29:24.380Z,15.63
2018-01-07T20:31:51.124Z,16.83
2018-01-07T20:34:17.931Z,16.17
2018-01-07T20:36:44.008Z,15.83
2018-01-07T20:39:10.751Z,17.00
2018-01-07T20:41:36.759Z,17.70
2018-01-07T20:44:02.752Z,16.10
2018-01-07T20:46:29.524Z,16.37
2018-01-07T20:48:55.501Z,16.90
2018-01-07T20:51:22.568Z,18.17
2018-01-07T20:53:48.620Z,16.70
2018-01-07T20:56:14.704Z,17.43
2018-01-07T20:58:40.736Z,15.97
2018-01-07T21:01:06.768Z,19.17
2018-01-07T21:03:32.812Z,16.57
2018-01-07T21:05:58.794Z,16.53
2018-01-07T21:08:28.813Z,17.23
2018-01-07T21:10:54.855Z,18.63
2018-01-07T21:13:20.893Z,17.90
2018-01-07T21:15:46.951Z,18.40
2018-01-07T21:18:13.022Z,18.17
2018-01-07T21:20:39.035Z,17.20
2018-01-07T21:23:05.028Z,17.80
2018-01-07T21:25:31.079Z,17.27
2018-01-07T21:27:57.073Z,16.83
2018-01-07T21:30:23.086Z,17.70
2018-01-07T21:32:49.846Z,17.47
2018-01-07T21:35:16.658Z,16.80
2018-01-07T21:37:42.651Z,17.43
2018-01-07T21:40:08.634Z,19.60
2018-01-07T21:42:34.659Z,18.47
2018-01-07T21:45:00.659Z,18.10
2018-01-07T21:47:26.688Z,18.50
2018-01-07T21:49:53.428Z,18.57
2018-01-07T21:52:19.496Z,19.10
2018-01-07T21:54:45.547Z,19.03
2018-01-07T21:57:11.572Z,17.77
2018-01-07T21:59:50.123Z,19.27
2018-01-07T22:02:27.462Z,18.00
2018-01-07T22:04:53.443Z,17.87
2018-01-07T22:07:19.474Z,18.13
2018-01-07T22:09:45.548Z,18.20
2018-01-07T22:12:17.608Z,20.10
2018-01-07T22:14:43.659Z,18.57
2018-01-07T22:17:09.679Z,19.30
2018-01-07T22:19:35.667Z,18.37
2018-01-07T22:22:01.708Z,19.90
2018-01-07T22:24:27.731Z,20.27
2018-01-07T22:26:53.733Z,18.30
2018-01-07T22:29:19.719Z,18.97
2018-01-07T22:31:45.748Z,20.30
2018-01-07T22:34:11.734Z,18.53
2018-01-07T22:36:37.757Z,18.50
2018-01-07T22:39:03.735Z,18.10
2018-01-07T22:41:29.711Z,20.33
2018-01-07T22:43:56.467Z,19.80
2018-01-07T22:46:23.209Z,19.03
2018-01-07T22:48:49.954Z,18.30
2018-01-07T22:51:15.992Z,18.40
2018-01-07T22:53:41.978Z,18.50
2018-01-07T22:56:07.963Z,18.40
2018-01-07T22:58:33.978Z,18.20
2018-01-07T23:00:59.976Z,19.23
2018-01-07T23:03:26.005Z,20.33
2018-01-07T23:05:52.000Z,21.80
2018-01-07T23:08:18.043Z,23.80
2018-01-07T23:10:44.047Z,27.77
2018-01-07T23:13:10.036Z,26.73
2018-01-07T23:15:36.836Z,25.40
2018-01-07T23:18:02.847Z,21.20
2018-01-07T23:20:28.867Z,21.10
2018-01-07T23:22:55.608Z,20.63
2018-01-07T23:25:21.660Z,18.50
2018-01-07T23:27:48.395Z,21.33
2018-01-07T23:30:14.443Z,20.60
2018-01-07T23:32:41.170Z,21.17
2018-01-07T23:35:07.177Z,34.93
2018-01-07T23:37:33.145Z,24.57
2018-01-07T23:39:59.122Z,20.90
2018-01-07T23:42:25.161Z,23.37
2018-01-07T23:44:51.095Z,23.00
2018-01-07T23:47:17.121Z,21.17
2018-01-07T23:49:43.865Z,26.07
2018-01-07T23:52:10.595Z,25.90
2018-01-07T23:54:36.577Z,19.17
2018-01-07T23:57:02.552Z,19.80
2018-01-07T23:59:28.528Z,19.67
